Time;durP1;ratioP1;P1;durP2;ratioP2;P2;SDS_P1;SDS_P2;PMS_P1;PMS_P2;Temp;Humidity;BMP_temperature;BMP_pressure;BME280_temperature;BME280_humidity;BME280_pressure;Samples;Min_cycle;Max_cycle;Signal;HPM_P1;HPM_P2
2021/08/14 00:02:24;;;;;;;9.63;7.20;;;;;;;;;;5097292;28;20228;-64
2021/08/14 00:04:52;;;;;;;8.37;6.17;;;;;;;;;;5097900;28;20249;-63
2021/08/14 00:07:20;;;;;;;13.43;7.57;;;;;;;;;;5097139;28;20227;-64
2021/08/14 00:09:48;;;;;;;10.53;6.30;;;;;;;;;;5097606;28;20208;-64
2021/08/14 00:12:16;;;;;;;11.60;7.97;;;;;;;;;;5102737;28;20224;-64
2021/08/14 00:14:44;;;;;;;10.73;7.40;;;;;;;;;;5118044;28;20212;-64
2021/08/14 00:17:12;;;;;;;14.10;7.23;;;;;;;;;;5117879;28;20208;-64
2021/08/14 00:19:42;;;;;;;11.60;7.70;;;;;;;;;;5097847;28;20225;-64
2021/08/14 00:22:10;;;;;;;9.80;7.23;;;;;;;;;;5096926;28;20315;-64
2021/08/14 00:24:37;;;;;;;14.03;6.87;;;;;;;;;;5097295;28;20207;-64
2021/08/14 00:27:05;;;;;;;10.93;7.73;;;;;;;;;;5097321;28;20592;-65
2021/08/14 00:29:33;;;;;;;15.80;8.30;;;;;;;;;;5097347;28;20226;-64
2021/08/14 00:32:01;;;;;;;12.43;7.13;;;;;;;;;;5097126;28;20727;-64
2021/08/14 00:34:29;;;;;;;14.57;7.83;;;;;;;;;;5097717;28;20208;-64
2021/08/14 00:36:58;;;;;;;10.80;7.03;;;;;;;;;;5097404;28;20204;-64
2021/08/14 00:39:26;;;;;;;10.87;7.53;;;;;;;;;;5096860;28;20243;-64
2021/08/14 00:41:54;;;;;;;12.97;6.80;;;;;;;;;;5097320;28;20295;-64
2021/08/14 00:44:22;;;;;;;12.23;7.40;;;;;;;;;;5097435;28;20212;-64
2021/08/14 00:46:50;;;;;;;12.73;8.30;;;;;;;;;;5097179;28;20207;-64
2021/08/14 00:49:18;;;;;;;11.97;7.13;;;;;;;;;;5097129;28;20205;-64
2021/08/14 00:51:46;;;;;;;13.13;7.53;;;;;;;;;;5096950;28;20310;-64
2021/08/14 00:54:16;;;;;;;11.73;7.07;;;;;;;;;;5097228;28;20217;-64
2021/08/14 00:56:44;;;;;;;13.37;7.03;;;;;;;;;;5097290;28;20212;-64
2021/08/14 00:59:12;;;;;;;11.33;6.80;;;;;;;;;;5097269;28;20210;-64
2021/08/14 01:01:40;;;;;;;14.40;7.00;;;;;;;;;;5096934;28;20232;-64
2021/08/14 01:04:10;;;;;;;9.57;6.87;;;;;;;;;;5096886;28;20203;-64
2021/08/14 01:06:38;;;;;;;16.37;7.23;;;;;;;;;;5096764;28;20208;-64
2021/08/14 01:09:06;;;;;;;12.43;7.27;;;;;;;;;;5096961;28;20215;-64
2021/08/14 01:11:36;;;;;;;12.23;6.40;;;;;;;;;;5097310;28;20225;-64
2021/08/14 01:14:05;;;;;;;10.90;6.63;;;;;;;;;;5120561;28;20204;-64
2021/08/14 01:16:33;;;;;;;21.20;6.87;;;;;;;;;;5121210;28;20287;-64
2021/08/14 01:19:01;;;;;;;12.60;6.97;;;;;;;;;;5106651;27;20194;-64
2021/08/14 01:21:30;;;;;;;12.10;7.33;;;;;;;;;;5100085;28;20231;-64
2021/08/14 01:23:58;;;;;;;11.47;6.63;;;;;;;;;;5100716;28;20213;-64
2021/08/14 01:26:26;;;;;;;8.87;5.80;;;;;;;;;;5100241;28;20212;-64
2021/08/14 01:28:55;;;;;;;10.00;6.87;;;;;;;;;;5100384;28;20206;-64
2021/08/14 01:31:23;;;;;;;10.60;6.40;;;;;;;;;;5100020;28;20277;-64
2021/08/14 01:33:52;;;;;;;12.87;7.20;;;;;;;;;;5100457;28;20273;-64
2021/08/14 01:36:20;;;;;;;9.10;5.83;;;;;;;;;;5100100;28;20215;-64
2021/08/14 01:38:48;;;;;;;11.43;6.57;;;;;;;;;;5099619;28;20229;-64
2021/08/14 01:41:17;;;;;;;12.80;7.40;;;;;;;;;;5099800;28;20717;-64
2021/08/14 01:43:58;;;;;;;10.93;6.43;;;;;;;;;;5100099;28;20268;-65
2021/08/14 01:46:27;;;;;;;12.10;7.07;;;;;;;;;;5099806;28;20296;-64
2021/08/14 01:48:55;;;;;;;9.20;6.50;;;;;;;;;;5100448;28;20208;-63
2021/08/14 01:51:23;;;;;;;12.57;7.80;;;;;;;;;;5099920;28;20223;-64
2021/08/14 01:53:52;;;;;;;11.77;6.93;;;;;;;;;;5099960;28;20207;-63
2021/08/14 01:56:20;;;;;;;10.60;7.40;;;;;;;;;;5099912;28;20235;-63
2021/08/14 01:58:48;;;;;;;11.27;7.37;;;;;;;;;;5099679;28;20288;-63
2021/08/14 02:01:18;;;;;;;10.80;7.07;;;;;;;;;;5099745;28;20229;-64
2021/08/14 02:03:47;;;;;;;13.17;7.57;;;;;;;;;;5099846;28;20208;-65
2021/08/14 02:06:15;;;;;;;10.70;7.10;;;;;;;;;;5099901;28;20206;-66
2021/08/14 02:08:43;;;;;;;12.97;7.50;;;;;;;;;;5099330;28;20214;-66
2021/08/14 02:11:12;;;;;;;14.83;8.00;;;;;;;;;;5099641;28;20203;-66
2021/08/14 02:13:40;;;;;;;12.93;7.40;;;;;;;;;;5116165;28;20236;-66
2021/08/14 02:16:08;;;;;;;14.37;7.63;;;;;;;;;;5119937;28;20244;-66
2021/08/14 02:18:38;;;;;;;13.00;7.47;;;;;;;;;;5108474;28;20202;-66
2021/08/14 02:21:06;;;;;;;14.20;7.20;;;;;;;;;;5099385;28;20226;-66
2021/08/14 02:23:34;;;;;;;13.40;7.87;;;;;;;;;;5098171;28;20208;-64
2021/08/14 02:26:02;;;;;;;13.47;8.13;;;;;;;;;;5099227;28;20678;-65
2021/08/14 02:28:30;;;;;;;13.40;6.77;;;;;;;;;;5099143;28;20233;-67
2021/08/14 02:30:58;;;;;;;12.83;7.33;;;;;;;;;;5099229;28;20203;-66
2021/08/14 02:33:26;;;;;;;13.17;7.90;;;;;;;;;;5099105;28;20206;-66
2021/08/14 02:35:56;;;;;;;13.57;7.43;;;;;;;;;;5099309;28;20205;-66
2021/08/14 02:38:24;;;;;;;13.00;7.90;;;;;;;;;;5098891;28;20210;-67
2021/08/14 02:40:52;;;;;;;14.33;7.53;;;;;;;;;;5099128;28;20215;-66
2021/08/14 02:43:20;;;;;;;17.37;8.30;;;;;;;;;;5098837;28;20222;-66
2021/08/14 02:45:48;;;;;;;15.03;8.03;;;;;;;;;;5099022;28;20209;-66
2021/08/14 02:48:16;;;;;;;12.90;7.87;;;;;;;;;;5098840;28;20247;-64
2021/08/14 02:50:44;;;;;;;11.83;8.43;;;;;;;;;;5098717;28;20228;-64
2021/08/14 02:53:14;;;;;;;13.17;7.73;;;;;;;;;;5098388;28;20221;-64
2021/08/14 02:55:42;;;;;;;11.17;7.73;;;;;;;;;;5098852;28;20207;-64
2021/08/14 02:58:10;;;;;;;11.60;7.90;;;;;;;;;;5098932;28;20212;-64
2021/08/14 03:00:38;;;;;;;15.73;7.97;;;;;;;;;;5098644;28;20694;-64
2021/08/14 03:03:06;;;;;;;12.83;7.57;;;;;;;;;;5098447;28;20232;-64
2021/08/14 03:05:37;;;;;;;16.77;7.73;;;;;;;;;;5098452;28;20703;-65
2021/08/14 03:08:07;;;;;;;10.57;6.53;;;;;;;;;;5098552;28;20219;-65
2021/08/14 03:10:38;;;;;;;8.37;7.13;;;;;;;;;;5098655;28;20212;-64
2021/08/14 03:13:07;;;;;;;12.47;6.63;;;;;;;;;;5111399;28;20219;-64
2021/08/14 03:15:35;;;;;;;12.73;7.37;;;;;;;;;;5118564;28;20209;-64
2021/08/14 03:18:03;;;;;;;13.20;7.07;;;;;;;;;;5112690;27;20744;-64
2021/08/14 03:20:32;;;;;;;10.43;6.70;;;;;;;;;;5098251;28;20207;-63
2021/08/14 03:23:00;;;;;;;10.60;6.97;;;;;;;;;;5097599;28;20238;-63
2021/08/14 03:25:28;;;;;;;9.80;6.80;;;;;;;;;;5098116;28;20218;-63
2021/08/14 03:27:58;;;;;;;10.20;6.87;;;;;;;;;;5097890;28;20221;-63
2021/08/14 03:30:26;;;;;;;15.93;6.53;;;;;;;;;;5098257;28;20203;-63
2021/08/14 03:32:54;;;;;;;11.67;7.57;;;;;;;;;;5097867;28;20233;-64
2021/08/14 03:35:22;;;;;;;14.20;8.20;;;;;;;;;;5097106;28;20225;-63
2021/08/14 03:37:50;;;;;;;10.33;7.17;;;;;;;;;;5097805;28;20210;-63
2021/08/14 03:40:18;;;;;;;11.10;7.23;;;;;;;;;;5097774;28;20325;-63
2021/08/14 03:42:46;;;;;;;12.03;7.23;;;;;;;;;;5097486;28;20317;-64
2021/08/14 03:45:16;;;;;;;12.73;7.63;;;;;;;;;;5098086;28;20202;-63
2021/08/14 03:47:44;;;;;;;13.17;7.63;;;;;;;;;;5097632;28;20286;-63
2021/08/14 03:50:13;;;;;;;11.57;7.43;;;;;;;;;;5098012;28;20677;-66
2021/08/14 03:52:41;;;;;;;11.60;7.33;;;;;;;;;;5097538;28;20217;-65
2021/08/14 03:55:10;;;;;;;10.87;6.73;;;;;;;;;;5097914;28;20208;-66
2021/08/14 03:57:38;;;;;;;12.33;8.50;;;;;;;;;;5097783;28;20228;-64
2021/08/14 04:00:06;;;;;;;11.83;7.07;;;;;;;;;;5097518;28;20210;-66
2021/08/14 04:02:36;;;;;;;15.93;7.33;;;;;;;;;;5097300;28;20601;-66
2021/08/14 04:05:04;;;;;;;13.97;7.07;;;;;;;;;;5097496;28;20208;-66
2021/08/14 04:07:32;;;;;;;14.73;7.30;;;;;;;;;;5094059;28;20204;-66
2021/08/14 04:10:00;;;;;;;12.23;7.23;;;;;;;;;;5097397;28;20205;-66
2021/08/14 04:12:28;;;;;;;10.60;7.17;;;;;;;;;;5098289;28;20260;-66
2021/08/14 04:14:57;;;;;;;11.33;7.33;;;;;;;;;;5097564;28;20682;-64
2021/08/14 04:17:31;;;;;;;10.87;6.83;;;;;;;;;;5097428;28;20203;-64
2021/08/14 04:20:01;;;;;;;14.47;7.07;;;;;;;;;;5097216;28;20196;-64
2021/08/14 04:22:29;;;;;;;11.50;6.90;;;;;;;;;;5096816;28;20226;-64
2021/08/14 04:24:57;;;;;;;12.53;6.70;;;;;;;;;;5097200;28;20627;-64
2021/08/14 04:27:25;;;;;;;12.43;7.60;;;;;;;;;;5097399;28;20204;-64
2021/08/14 04:29:53;;;;;;;13.90;8.03;;;;;;;;;;5097090;28;20543;-64
2021/08/14 04:32:21;;;;;;;10.03;6.90;;;;;;;;;;5097358;28;20233;-63
2021/08/14 04:34:49;;;;;;;10.03;6.83;;;;;;;;;;5097450;28;20206;-64
2021/08/14 04:37:18;;;;;;;15.50;7.83;;;;;;;;;;5096804;28;20241;-64
2021/08/14 04:39:46;;;;;;;13.30;7.23;;;;;;;;;;5096959;28;20317;-64
2021/08/14 04:42:14;;;;;;;13.20;6.97;;;;;;;;;;5096945;28;20236;-64
2021/08/14 04:44:42;;;;;;;11.23;7.13;;;;;;;;;;5097302;28;20217;-64
2021/08/14 04:47:10;;;;;;;9.17;6.67;;;;;;;;;;5098864;28;20207;-64
2021/08/14 04:49:38;;;;;;;10.70;7.10;;;;;;;;;;5101181;28;20576;-64
2021/08/14 04:52:06;;;;;;;13.30;6.87;;;;;;;;;;5100582;28;20233;-64
2021/08/14 04:54:35;;;;;;;13.40;6.60;;;;;;;;;;5101333;28;20204;-64
2021/08/14 04:57:03;;;;;;;14.20;7.77;;;;;;;;;;5100840;28;20290;-64
2021/08/14 04:59:31;;;;;;;8.97;6.57;;;;;;;;;;5101236;28;20211;-64
2021/08/14 05:02:00;;;;;;;11.60;7.03;;;;;;;;;;5100661;28;20238;-64
2021/08/14 05:04:28;;;;;;;10.27;7.27;;;;;;;;;;5100716;28;20272;-64
2021/08/14 05:06:56;;;;;;;18.87;7.53;;;;;;;;;;5100524;28;20210;-64
2021/08/14 05:09:24;;;;;;;13.20;8.10;;;;;;;;;;5100578;28;20210;-64
2021/08/14 05:11:53;;;;;;;14.20;7.63;;;;;;;;;;5102816;28;20219;-64
2021/08/14 05:14:21;;;;;;;12.30;7.10;;;;;;;;;;5120999;28;20207;-64
2021/08/14 05:16:49;;;;;;;16.47;7.33;;;;;;;;;;5120654;28;20218;-64
2021/08/14 05:19:17;;;;;;;12.63;8.27;;;;;;;;;;5104288;28;20713;-64
2021/08/14 05:21:45;;;;;;;11.90;7.90;;;;;;;;;;5100026;28;20231;-64
2021/08/14 05:24:13;;;;;;;11.17;7.57;;;;;;;;;;5100757;28;20222;-64
2021/08/14 05:26:42;;;;;;;11.57;7.20;;;;;;;;;;5100628;28;20213;-64
2021/08/14 05:29:11;;;;;;;10.37;6.87;;;;;;;;;;5100453;28;20208;-63
2021/08/14 05:31:39;;;;;;;14.37;8.53;;;;;;;;;;5100105;28;20235;-63
2021/08/14 05:34:07;;;;;;;12.10;8.17;;;;;;;;;;5100246;28;20203;-63
2021/08/14 05:36:35;;;;;;;12.13;8.10;;;;;;;;;;5100111;28;20210;-63
2021/08/14 05:39:03;;;;;;;12.47;7.50;;;;;;;;;;5100104;28;20696;-63
2021/08/14 05:41:32;;;;;;;8.53;7.37;;;;;;;;;;5100056;28;20318;-64
2021/08/14 05:44:00;;;;;;;13.23;8.00;;;;;;;;;;5100049;28;20235;-64
2021/08/14 05:46:29;;;;;;;11.00;7.90;;;;;;;;;;5099731;28;20577;-65
2021/08/14 05:48:58;;;;;;;11.67;8.17;;;;;;;;;;5099840;28;20210;-63
2021/08/14 05:51:26;;;;;;;13.13;10.10;;;;;;;;;;5099742;28;20232;-63
2021/08/14 05:54:13;;;;;;;14.93;7.60;;;;;;;;;;5099955;28;20202;-64
2021/08/14 05:56:41;;;;;;;13.17;7.90;;;;;;;;;;5099860;28;20209;-64
2021/08/14 05:59:09;;;;;;;12.23;7.53;;;;;;;;;;5098615;28;20245;-63
2021/08/14 06:01:39;;;;;;;11.80;7.87;;;;;;;;;;5099594;28;20227;-63
2021/08/14 06:04:07;;;;;;;14.83;8.13;;;;;;;;;;5099558;28;20628;-64
2021/08/14 06:06:35;;;;;;;11.40;7.90;;;;;;;;;;5099635;28;20247;-63
2021/08/14 06:09:03;;;;;;;13.70;7.87;;;;;;;;;;5099486;28;20206;-64
2021/08/14 06:11:31;;;;;;;10.27;7.67;;;;;;;;;;5099313;28;20230;-66
2021/08/14 06:13:59;;;;;;;11.40;7.53;;;;;;;;;;5119054;28;20199;-66
2021/08/14 06:16:27;;;;;;;12.97;8.10;;;;;;;;;;5120057;27;20225;-64
2021/08/14 06:18:56;;;;;;;9.83;7.77;;;;;;;;;;5105734;28;20279;-64
2021/08/14 06:21:24;;;;;;;13.60;8.87;;;;;;;;;;5099114;28;20247;-64
2021/08/14 06:23:52;;;;;;;11.30;8.43;;;;;;;;;;5099247;28;20387;-64
2021/08/14 06:26:20;;;;;;;16.77;8.37;;;;;;;;;;5099477;28;20212;-64
2021/08/14 06:28:48;;;;;;;10.27;8.33;;;;;;;;;;5099401;28;20202;-64
2021/08/14 06:31:17;;;;;;;12.73;8.43;;;;;;;;;;5099243;28;20209;-64
2021/08/14 06:33:45;;;;;;;18.30;8.00;;;;;;;;;;5099112;28;20735;-64
2021/08/14 06:36:14;;;;;;;11.43;7.63;;;;;;;;;;5098869;28;20210;-64
2021/08/14 06:38:42;;;;;;;12.97;8.13;;;;;;;;;;5099044;28;20783;-65
2021/08/14 06:41:10;;;;;;;13.30;7.60;;;;;;;;;;5098713;28;20213;-64
2021/08/14 06:43:38;;;;;;;14.23;7.03;;;;;;;;;;5098833;28;20239;-64
2021/08/14 06:46:06;;;;;;;12.93;7.97;;;;;;;;;;5098947;28;20213;-64
2021/08/14 06:48:35;;;;;;;14.67;8.30;;;;;;;;;;5099046;28;20205;-64
2021/08/14 06:51:03;;;;;;;11.73;7.97;;;;;;;;;;5098490;28;20262;-64
2021/08/14 06:53:32;;;;;;;17.87;9.17;;;;;;;;;;5098704;28;20203;-64
2021/08/14 06:56:00;;;;;;;18.23;9.60;;;;;;;;;;5098458;28;20644;-64
2021/08/14 06:58:29;;;;;;;12.60;8.23;;;;;;;;;;5098701;28;20264;-66
2021/08/14 07:00:57;;;;;;;15.73;9.73;;;;;;;;;;5098716;28;20300;-66
2021/08/14 07:03:25;;;;;;;13.13;8.83;;;;;;;;;;5098627;28;20236;-66
2021/08/14 07:05:53;;;;;;;15.63;8.07;;;;;;;;;;5098651;28;20229;-66
2021/08/14 07:08:21;;;;;;;16.60;8.93;;;;;;;;;;5098498;28;20215;-64
2021/08/14 07:10:51;;;;;;;19.20;9.60;;;;;;;;;;5098374;28;20215;-65
2021/08/14 07:13:19;;;;;;;11.93;7.60;;;;;;;;;;5111652;28;20230;-64
2021/08/14 07:15:47;;;;;;;17.47;8.67;;;;;;;;;;5118563;28;20206;-64
2021/08/14 07:18:15;;;;;;;13.87;7.80;;;;;;;;;;5110216;28;20691;-64
2021/08/14 07:20:43;;;;;;;9.27;7.73;;;;;;;;;;5098232;28;20634;-64
2021/08/14 07:23:11;;;;;;;16.00;8.60;;;;;;;;;;5097792;28;20588;-64
2021/08/14 07:25:39;;;;;;;12.33;7.80;;;;;;;;;;5098118;28;20216;-66
2021/08/14 07:28:08;;;;;;;15.00;8.90;;;;;;;;;;5098191;28;20210;-65
2021/08/14 07:30:36;;;;;;;11.53;8.90;;;;;;;;;;5098437;28;20202;-66
2021/08/14 07:33:04;;;;;;;16.20;9.63;;;;;;;;;;5098074;28;20245;-64
2021/08/14 07:35:32;;;;;;;14.10;8.67;;;;;;;;;;5098107;28;20203;-64
2021/08/14 07:38:00;;;;;;;17.50;10.10;;;;;;;;;;5097434;28;20208;-64
2021/08/14 07:40:28;;;;;;;17.07;9.17;;;;;;;;;;5097837;28;20245;-66
2021/08/14 07:42:57;;;;;;;13.73;8.37;;;;;;;;;;5097995;28;20230;-64
2021/08/14 07:45:27;;;;;;;15.77;9.37;;;;;;;;;;5097665;28;20231;-64
2021/08/14 07:47:55;;;;;;;9.47;8.10;;;;;;;;;;5097893;28;20206;-64
2021/08/14 07:50:23;;;;;;;13.90;8.53;;;;;;;;;;5097888;28;20235;-64
2021/08/14 07:52:51;;;;;;;17.07;9.67;;;;;;;;;;5097582;28;20234;-64
2021/08/14 07:55:20;;;;;;;17.97;8.67;;;;;;;;;;5097813;28;20759;-64
2021/08/14 07:57:48;;;;;;;12.73;8.33;;;;;;;;;;5097483;28;20568;-64
2021/08/14 08:00:17;;;;;;;15.10;8.57;;;;;;;;;;5097825;28;20206;-65
2021/08/14 08:02:46;;;;;;;10.27;7.90;;;;;;;;;;5097322;28;20246;-64
2021/08/14 08:05:15;;;;;;;13.67;9.40;;;;;;;;;;5097755;28;20319;-65
2021/08/14 08:07:44;;;;;;;12.38;8.02;;;;;;;;;;5097441;28;20291;-65
2021/08/14 08:10:12;;;;;;;15.55;8.90;;;;;;;;;;5097795;28;20299;-64
2021/08/14 08:12:41;;;;;;;11.90;8.98;;;;;;;;;;5106236;28;20226;-65
2021/08/14 08:15:10;;;;;;;15.38;8.57;;;;;;;;;;5117837;28;20209;-64
2021/08/14 08:17:38;;;;;;;13.00;9.15;;;;;;;;;;5117576;28;20289;-64
2021/08/14 08:20:09;;;;;;;15.50;9.32;;;;;;;;;;5094170;28;20248;-64
2021/08/14 08:22:37;;;;;;;15.70;8.83;;;;;;;;;;5100127;28;20240;-64
2021/08/14 08:25:06;;;;;;;13.87;9.27;;;;;;;;;;5101740;28;20366;-64
2021/08/14 08:27:33;;;;;;;13.97;8.93;;;;;;;;;;5101330;28;20201;-64
2021/08/14 08:30:02;;;;;;;12.90;8.10;;;;;;;;;;5101697;28;20668;-64
2021/08/14 08:32:29;;;;;;;13.80;8.98;;;;;;;;;;5101485;28;20233;-65
2021/08/14 08:34:57;;;;;;;15.93;8.90;;;;;;;;;;5101646;28;20213;-64
2021/08/14 08:37:27;;;;;;;14.35;9.00;;;;;;;;;;5101331;28;20289;-64
2021/08/14 08:39:55;;;;;;;15.27;8.55;;;;;;;;;;5101140;28;20241;-64
2021/08/14 08:42:23;;;;;;;17.42;9.02;;;;;;;;;;5101128;28;20235;-64
2021/08/14 08:44:51;;;;;;;13.77;8.18;;;;;;;;;;5100921;28;20585;-64
2021/08/14 08:47:18;;;;;;;17.27;7.22;;;;;;;;;;5101164;28;20204;-65
2021/08/14 08:49:50;;;;;;;13.20;6.60;;;;;;;;;;5101196;28;20210;-64
2021/08/14 08:52:18;;;;;;;14.27;7.45;;;;;;;;;;5100651;28;20268;-64
2021/08/14 08:54:48;;;;;;;10.70;7.13;;;;;;;;;;5101206;28;20231;-64
2021/08/14 08:57:16;;;;;;;7.90;6.82;;;;;;;;;;5101035;28;20213;-64
2021/08/14 08:59:45;;;;;;;14.02;7.35;;;;;;;;;;5101173;28;20204;-64
2021/08/14 09:02:26;;;;;;;12.80;6.82;;;;;;;;;;5100910;28;20310;-64
2021/08/14 09:05:07;;;;;;;10.30;6.70;;;;;;;;;;5100668;28;20228;-64
2021/08/14 09:07:36;;;;;;;11.45;7.15;;;;;;;;;;5100287;28;20551;-64
2021/08/14 09:10:06;;;;;;;15.25;6.63;;;;;;;;;;5100871;28;20237;-65
2021/08/14 09:12:38;;;;;;;11.13;6.07;;;;;;;;;;5107149;28;20323;-64
2021/08/14 09:15:07;;;;;;;13.35;6.97;;;;;;;;;;5121052;27;20564;-64
2021/08/14 09:17:35;;;;;;;13.57;6.60;;;;;;;;;;5120657;28;20257;-64
2021/08/14 09:20:08;;;;;;;13.27;6.53;;;;;;;;;;5097407;28;20219;-64
2021/08/14 09:22:36;;;;;;;10.43;6.13;;;;;;;;;;5100323;28;20229;-64
2021/08/14 09:25:12;;;;;;;16.30;6.72;;;;;;;;;;5100191;28;20243;-64
2021/08/14 09:27:54;;;;;;;12.77;6.88;;;;;;;;;;5100635;28;20204;-64
2021/08/14 09:30:22;;;;;;;11.90;7.43;;;;;;;;;;5100578;28;20208;-64
2021/08/14 09:33:07;;;;;;;10.75;6.50;;;;;;;;;;5100221;28;20227;-64
2021/08/14 09:35:35;;;;;;;10.95;6.78;;;;;;;;;;5100508;28;20252;-65
2021/08/14 09:38:04;;;;;;;12.70;6.60;;;;;;;;;;5100023;28;20209;-63
2021/08/14 09:40:38;;;;;;;12.43;7.22;;;;;;;;;;5100162;28;20232;-63
2021/08/14 09:43:06;;;;;;;12.57;7.05;;;;;;;;;;5100000;28;20221;-64
2021/08/14 09:45:34;;;;;;;12.10;7.78;;;;;;;;;;5100229;28;20225;-65
2021/08/14 09:48:21;;;;;;;14.50;6.85;;;;;;;;;;5100011;28;20205;-65
2021/08/14 09:50:49;;;;;;;14.75;6.18;;;;;;;;;;5099959;28;20293;-65
2021/08/14 09:53:18;;;;;;;16.65;6.30;;;;;;;;;;5099503;28;20243;-65
2021/08/14 09:55:50;;;;;;;14.57;7.20;;;;;;;;;;5099944;28;20211;-63
2021/08/14 09:58:20;;;;;;;14.32;5.90;;;;;;;;;;5099753;28;20212;-65
2021/08/14 10:00:49;;;;;;;12.10;6.07;;;;;;;;;;5099896;28;20205;-65
2021/08/14 10:03:17;;;;;;;8.15;6.40;;;;;;;;;;5099335;28;20229;-65
2021/08/14 10:05:46;;;;;;;13.05;7.10;;;;;;;;;;5099406;28;20227;-65
2021/08/14 10:08:14;;;;;;;14.90;6.90;;;;;;;;;;5099554;28;20655;-62
2021/08/14 10:10:43;;;;;;;15.45;6.97;;;;;;;;;;5099522;28;20567;-62
2021/08/14 10:13:18;;;;;;;11.80;7.05;;;;;;;;;;5112964;28;20759;-63
2021/08/14 10:15:47;;;;;;;16.63;7.07;;;;;;;;;;5120041;28;20204;-63
2021/08/14 10:18:16;;;;;;;12.65;6.35;;;;;;;;;;5111624;28;20267;-65
2021/08/14 10:20:44;;;;;;;10.98;6.97;;;;;;;;;;5099515;28;20675;-65
2021/08/14 10:23:13;;;;;;;12.98;7.22;;;;;;;;;;5098717;28;20228;-65
2021/08/14 10:25:42;;;;;;;14.00;6.70;;;;;;;;;;5099381;28;20268;-65
2021/08/14 10:28:10;;;;;;;12.90;7.22;;;;;;;;;;5099445;28;20213;-65
2021/08/14 10:30:40;;;;;;;13.73;6.80;;;;;;;;;;5099432;28;20209;-65
2021/08/14 10:33:09;;;;;;;11.60;5.80;;;;;;;;;;5098936;28;20265;-65
2021/08/14 10:35:38;;;;;;;12.38;6.05;;;;;;;;;;5099327;28;20208;-65
2021/08/14 10:38:29;;;;;;;10.27;6.32;;;;;;;;;;5098650;28;20205;-65
2021/08/14 10:40:58;;;;;;;13.00;5.63;;;;;;;;;;5099051;28;20209;-65
2021/08/14 10:43:52;;;;;;;14.25;6.03;;;;;;;;;;5099223;28;20205;-65
2021/08/14 10:46:35;;;;;;;10.50;5.70;;;;;;;;;;5083401;28;20239;-66
2021/08/14 10:49:05;;;;;;;14.23;6.65;;;;;;;;;;5096806;28;20244;-63
2021/08/14 10:51:48;;;;;;;14.02;6.20;;;;;;;;;;5098373;28;20232;-63
2021/08/14 10:54:36;;;;;;;9.18;5.50;;;;;;;;;;5098076;28;20216;-65
2021/08/14 10:57:05;;;;;;;13.65;5.88;;;;;;;;;;5098426;28;20614;-64
2021/08/14 11:00:00;;;;;;;12.68;6.03;;;;;;;;;;5098655;28;20671;-64
2021/08/14 11:02:35;;;;;;;14.98;5.53;;;;;;;;;;5098167;28;20235;-64
2021/08/14 11:05:05;;;;;;;12.43;5.03;;;;;;;;;;5098732;28;20607;-65
2021/08/14 11:07:33;;;;;;;10.68;5.53;;;;;;;;;;5098068;28;20288;-65
2021/08/14 11:10:11;;;;;;;10.95;5.85;;;;;;;;;;5098608;28;20205;-65
2021/08/14 11:12:42;;;;;;;11.48;6.07;;;;;;;;;;5106047;28;20256;-63
2021/08/14 11:15:20;;;;;;;13.68;6.03;;;;;;;;;;5118740;28;20286;-62
2021/08/14 11:17:49;;;;;;;12.50;6.47;;;;;;;;;;5117085;28;20254;-63
2021/08/14 11:20:35;;;;;;;8.13;5.72;;;;;;;;;;5096047;28;20219;-65
2021/08/14 11:23:05;;;;;;;14.18;5.93;;;;;;;;;;5098001;28;20236;-65
2021/08/14 11:25:34;;;;;;;12.48;6.13;;;;;;;;;;5097976;28;20211;-65
2021/08/14 11:28:03;;;;;;;11.40;5.88;;;;;;;;;;5098292;28;20288;-65
2021/08/14 11:30:33;;;;;;;12.35;6.78;;;;;;;;;;5098032;28;20248;-65
2021/08/14 11:33:02;;;;;;;12.32;5.22;;;;;;;;;;5097936;28;20271;-65
2021/08/14 11:35:31;;;;;;;17.77;6.72;;;;;;;;;;5097737;28;20252;-65
2021/08/14 11:38:01;;;;;;;17.00;6.20;;;;;;;;;;5097892;28;20209;-65
2021/08/14 11:40:31;;;;;;;14.00;5.80;;;;;;;;;;5097687;28;20259;-65
2021/08/14 11:43:00;;;;;;;13.65;5.72;;;;;;;;;;5097819;28;20229;-65
2021/08/14 11:45:28;;;;;;;8.63;6.18;;;;;;;;;;5098059;28;20251;-65
2021/08/14 11:47:57;;;;;;;12.48;5.85;;;;;;;;;;5097653;28;20236;-64
2021/08/14 11:50:32;;;;;;;9.02;5.97;;;;;;;;;;5097981;28;20269;-65
2021/08/14 11:53:01;;;;;;;14.23;6.07;;;;;;;;;;5097475;28;20235;-65
2021/08/14 11:55:29;;;;;;;9.65;5.78;;;;;;;;;;5097576;28;20205;-65
2021/08/14 11:57:57;;;;;;;11.00;5.57;;;;;;;;;;5097589;28;20201;-65
2021/08/14 12:00:26;;;;;;;8.93;6.18;;;;;;;;;;5097896;28;20236;-65
2021/08/14 12:03:04;;;;;;;12.68;5.47;;;;;;;;;;5097755;28;20312;-65
2021/08/14 12:05:33;;;;;;;8.45;5.72;;;;;;;;;;5097714;28;20678;-65
2021/08/14 12:08:02;;;;;;;9.70;5.43;;;;;;;;;;5097413;28;20231;-65
2021/08/14 12:10:30;;;;;;;10.05;6.30;;;;;;;;;;5097837;28;20237;-65
2021/08/14 12:12:59;;;;;;;10.98;6.07;;;;;;;;;;5108851;28;20220;-65
2021/08/14 12:15:48;;;;;;;10.35;6.22;;;;;;;;;;5117979;28;20283;-65
2021/08/14 12:18:33;;;;;;;10.30;6.47;;;;;;;;;;5105382;28;20627;-64
2021/08/14 12:21:01;;;;;;;13.77;6.40;;;;;;;;;;5097293;28;20205;-65
2021/08/14 12:23:31;;;;;;;13.07;7.53;;;;;;;;;;5097638;28;20209;-63
2021/08/14 12:26:02;;;;;;;9.88;6.40;;;;;;;;;;5097378;28;20209;-63
2021/08/14 12:28:30;;;;;;;15.55;5.65;;;;;;;;;;5097437;28;20207;-63
2021/08/14 12:30:59;;;;;;;9.25;5.75;;;;;;;;;;5097749;28;20211;-65
2021/08/14 12:33:28;;;;;;;7.60;5.53;;;;;;;;;;5097887;28;20255;-65
2021/08/14 12:35:56;;;;;;;13.02;6.05;;;;;;;;;;5097082;28;20205;-65
2021/08/14 12:38:24;;;;;;;11.68;5.43;;;;;;;;;;5083867;28;20585;-65
2021/08/14 12:40:54;;;;;;;10.18;5.35;;;;;;;;;;5097088;28;20209;-65
2021/08/14 12:43:23;;;;;;;12.07;5.25;;;;;;;;;;5097484;28;20221;-65
2021/08/14 12:45:51;;;;;;;8.77;5.43;;;;;;;;;;5097408;28;20205;-65
2021/08/14 12:48:19;;;;;;;12.13;5.20;;;;;;;;;;5097031;28;20264;-65
2021/08/14 12:50:47;;;;;;;17.35;5.55;;;;;;;;;;5097167;28;20208;-65
2021/08/14 12:53:16;;;;;;;11.30;5.72;;;;;;;;;;5097063;28;20236;-65
2021/08/14 12:55:45;;;;;;;11.85;5.60;;;;;;;;;;5096823;28;20211;-65
2021/08/14 12:58:15;;;;;;;10.93;5.35;;;;;;;;;;5097281;28;20284;-65
2021/08/14 13:00:45;;;;;;;9.55;5.20;;;;;;;;;;5097327;28;20206;-65
2021/08/14 13:03:13;;;;;;;13.75;5.35;;;;;;;;;;5096851;28;20274;-65
2021/08/14 13:05:42;;;;;;;12.80;6.15;;;;;;;;;;5096934;28;20551;-65
2021/08/14 13:08:10;;;;;;;10.10;5.35;;;;;;;;;;5098522;28;20316;-65
2021/08/14 13:10:38;;;;;;;10.48;5.15;;;;;;;;;;5100688;28;20209;-65
2021/08/14 13:13:07;;;;;;;10.80;6.10;;;;;;;;;;5112808;28;20300;-65
2021/08/14 13:15:53;;;;;;;10.63;5.00;;;;;;;;;;5121406;28;20208;-65
2021/08/14 13:18:23;;;;;;;11.57;5.10;;;;;;;;;;5111709;27;20202;-65
2021/08/14 13:20:54;;;;;;;12.07;5.63;;;;;;;;;;5100449;28;20217;-65
2021/08/14 13:23:22;;;;;;;11.43;6.15;;;;;;;;;;5100578;28;20289;-65
2021/08/14 13:25:51;;;;;;;10.23;5.05;;;;;;;;;;5100799;28;20215;-65
2021/08/14 13:28:19;;;;;;;15.77;5.95;;;;;;;;;;5100255;28;20752;-65
2021/08/14 13:30:48;;;;;;;9.23;5.25;;;;;;;;;;5100531;28;20206;-65
2021/08/14 13:33:18;;;;;;;10.70;6.03;;;;;;;;;;5099953;28;20607;-65
2021/08/14 13:35:46;;;;;;;11.35;6.38;;;;;;;;;;5100428;28;20288;-65
2021/08/14 13:38:14;;;;;;;14.98;5.95;;;;;;;;;;5099986;28;20682;-65
2021/08/14 13:40:43;;;;;;;13.05;6.40;;;;;;;;;;5100206;28;20282;-65
2021/08/14 13:43:11;;;;;;;13.07;5.97;;;;;;;;;;5100250;28;20316;-65
2021/08/14 13:45:39;;;;;;;12.95;6.03;;;;;;;;;;5099973;28;20227;-65
2021/08/14 13:48:07;;;;;;;12.60;5.75;;;;;;;;;;5100001;28;20225;-65
2021/08/14 13:50:37;;;;;;;13.50;5.88;;;;;;;;;;5099855;28;20209;-65
2021/08/14 13:53:05;;;;;;;10.00;5.47;;;;;;;;;;5099766;28;20221;-65
2021/08/14 13:55:33;;;;;;;8.50;5.80;;;;;;;;;;5099682;28;20209;-65
2021/08/14 13:58:01;;;;;;;12.10;5.90;;;;;;;;;;5100075;28;20211;-65
2021/08/14 14:00:32;;;;;;;9.52;6.03;;;;;;;;;;5099844;28;20676;-65
2021/08/14 14:03:00;;;;;;;12.05;5.68;;;;;;;;;;5099870;28;20229;-65
2021/08/14 14:05:29;;;;;;;11.27;6.38;;;;;;;;;;5099397;28;20548;-65
2021/08/14 14:07:58;;;;;;;14.98;6.70;;;;;;;;;;5099227;28;20225;-65
2021/08/14 14:10:27;;;;;;;13.88;5.68;;;;;;;;;;5099599;28;20575;-65
2021/08/14 14:12:56;;;;;;;12.48;5.97;;;;;;;;;;5110507;28;20224;-65
2021/08/14 14:15:24;;;;;;;14.15;6.20;;;;;;;;;;5119821;28;20200;-65
2021/08/14 14:17:52;;;;;;;17.77;6.20;;;;;;;;;;5117089;28;20292;-65
2021/08/14 14:20:20;;;;;;;12.23;5.55;;;;;;;;;;5096922;28;20696;-66
2021/08/14 14:22:50;;;;;;;11.57;5.55;;;;;;;;;;5099090;28;20840;-65
2021/08/14 14:25:20;;;;;;;10.45;5.55;;;;;;;;;;5099152;28;20204;-65
2021/08/14 14:27:48;;;;;;;16.50;5.80;;;;;;;;;;5099424;28;20217;-65
2021/08/14 14:30:16;;;;;;;13.07;6.00;;;;;;;;;;5099346;28;20687;-65
2021/08/14 14:32:44;;;;;;;12.60;5.85;;;;;;;;;;5099010;28;20231;-65
2021/08/14 14:35:12;;;;;;;11.25;6.00;;;;;;;;;;5099310;28;20211;-65
2021/08/14 14:37:40;;;;;;;11.73;6.57;;;;;;;;;;5098624;28;20201;-65
2021/08/14 14:40:10;;;;;;;11.63;5.85;;;;;;;;;;5098952;28;20229;-65
2021/08/14 14:42:39;;;;;;;15.65;6.05;;;;;;;;;;5098960;28;20232;-65
2021/08/14 14:45:08;;;;;;;13.98;5.80;;;;;;;;;;5099055;28;20661;-65